sensor_id;sensor_type;location;lat;lon;timestamp;temperature;humidity
10314;DHT22;5202;49.138;10.090;2022-09-02T00:00:05;13.90;99.40
10314;DHT22;5202;49.138;10.090;2022-09-02T00:02:36;13.80;99.30
10314;DHT22;5202;49.138;10.090;2022-09-02T00:05:06;13.70;99.40
10314;DHT22;5202;49.138;10.090;2022-09-02T00:07:41;13.70;99.80
10314;DHT22;5202;49.138;10.090;2022-09-02T00:10:09;13.70;99.50
10314;DHT22;5202;49.138;10.090;2022-09-02T00:12:37;13.60;99.60
10314;DHT22;5202;49.138;10.090;2022-09-02T00:15:06;13.60;99.60
10314;DHT22;5202;49.138;10.090;2022-09-02T00:17:36;13.70;99.60
10314;DHT22;5202;49.138;10.090;2022-09-02T00:20:08;13.60;99.90
10314;DHT22;5202;49.138;10.090;2022-09-02T00:22:37;13.60;99.60
10314;DHT22;5202;49.138;10.090;2022-09-02T00:25:06;13.60;99.50
10314;DHT22;5202;49.138;10.090;2022-09-02T00:27:35;13.60;99.50
10314;DHT22;5202;49.138;10.090;2022-09-02T00:30:05;13.50;99.40
10314;DHT22;5202;49.138;10.090;2022-09-02T00:32:34;13.50;99.70
10314;DHT22;5202;49.138;10.090;2022-09-02T00:35:04;13.40;99.70
10314;DHT22;5202;49.138;10.090;2022-09-02T00:37:34;13.40;99.90
10314;DHT22;5202;49.138;10.090;2022-09-02T00:40:04;13.40;99.90
10314;DHT22;5202;49.138;10.090;2022-09-02T00:42:34;13.40;99.90
10314;DHT22;5202;49.138;10.090;2022-09-02T00:45:04;13.40;99.90
10314;DHT22;5202;49.138;10.090;2022-09-02T00:47:34;13.40;99.90
10314;DHT22;5202;49.138;10.090;2022-09-02T00:50:08;13.40;99.90
10314;DHT22;5202;49.138;10.090;2022-09-02T00:52:42;13.40;99.90
10314;DHT22;5202;49.138;10.090;2022-09-02T00:55:16;13.40;99.90
10314;DHT22;5202;49.138;10.090;2022-09-02T00:57:53;13.30;99.90
10314;DHT22;5202;49.138;10.090;2022-09-02T01:00:25;13.30;99.90
10314;DHT22;5202;49.138;10.090;2022-09-02T01:03:03;13.30;99.90
10314;DHT22;5202;49.138;10.090;2022-09-02T01:05:38;13.30;99.90
10314;DHT22;5202;49.138;10.090;2022-09-02T01:08:10;13.30;99.90
10314;DHT22;5202;49.138;10.090;2022-09-02T01:10:40;13.30;99.90
10314;DHT22;5202;49.138;10.090;2022-09-02T01:13:13;13.20;99.90
10314;DHT22;5202;49.138;10.090;2022-09-02T01:15:48;13.30;99.90
10314;DHT22;5202;49.138;10.090;2022-09-02T01:18:22;13.30;99.90
10314;DHT22;5202;49.138;10.090;2022-09-02T01:20:57;13.30;99.90
10314;DHT22;5202;49.138;10.090;2022-09-02T01:23:29;13.30;99.90
10314;DHT22;5202;49.138;10.090;2022-09-02T01:26:01;13.20;99.90
10314;DHT22;5202;49.138;10.090;2022-09-02T01:28:30;13.20;99.90
10314;DHT22;5202;49.138;10.090;2022-09-02T01:31:00;13.20;99.90
10314;DHT22;5202;49.138;10.090;2022-09-02T01:33:29;13.20;99.90
10314;DHT22;5202;49.138;10.090;2022-09-02T01:35:57;13.30;99.90
10314;DHT22;5202;49.138;10.090;2022-09-02T01:38:30;13.20;99.90
10314;DHT22;5202;49.138;10.090;2022-09-02T01:40:59;13.20;99.90
10314;DHT22;5202;49.138;10.090;2022-09-02T01:43:28;13.10;99.90
10314;DHT22;5202;49.138;10.090;2022-09-02T01:45:58;13.00;99.90
10314;DHT22;5202;49.138;10.090;2022-09-02T01:48:29;13.00;99.90
10314;DHT22;5202;49.138;10.090;2022-09-02T01:51:00;13.00;99.90
10314;DHT22;5202;49.138;10.090;2022-09-02T01:53:31;13.00;99.90
10314;DHT22;5202;49.138;10.090;2022-09-02T01:56:00;13.00;99.90
10314;DHT22;5202;49.138;10.090;2022-09-02T01:58:32;13.10;99.90
10314;DHT22;5202;49.138;10.090;2022-09-02T02:01:00;13.10;99.90
10314;DHT22;5202;49.138;10.090;2022-09-02T02:03:29;13.00;99.90
10314;DHT22;5202;49.138;10.090;2022-09-02T02:05:58;13.00;99.90
10314;DHT22;5202;49.138;10.090;2022-09-02T02:08:27;13.00;99.70
10314;DHT22;5202;49.138;10.090;2022-09-02T02:10:58;13.00;99.80
10314;DHT22;5202;49.138;10.090;2022-09-02T02:13:29;12.90;99.70
10314;DHT22;5202;49.138;10.090;2022-09-02T02:15:57;12.90;99.80
10314;DHT22;5202;49.138;10.090;2022-09-02T02:18:26;12.90;99.80
10314;DHT22;5202;49.138;10.090;2022-09-02T02:20:55;12.90;99.80
10314;DHT22;5202;49.138;10.090;2022-09-02T02:23:24;12.80;99.80
10314;DHT22;5202;49.138;10.090;2022-09-02T02:25:52;12.70;99.80
10314;DHT22;5202;49.138;10.090;2022-09-02T02:28:22;12.80;99.90
10314;DHT22;5202;49.138;10.090;2022-09-02T02:30:51;12.70;99.90
10314;DHT22;5202;49.138;10.090;2022-09-02T02:33:19;12.80;99.90
10314;DHT22;5202;49.138;10.090;2022-09-02T02:36:00;12.80;99.90
10314;DHT22;5202;49.138;10.090;2022-09-02T02:38:30;12.70;99.90
10314;DHT22;5202;49.138;10.090;2022-09-02T02:40:59;12.70;99.90
10314;DHT22;5202;49.138;10.090;2022-09-02T02:43:30;12.70;99.90
10314;DHT22;5202;49.138;10.090;2022-09-02T02:45:58;12.70;99.90
10314;DHT22;5202;49.138;10.090;2022-09-02T02:48:51;12.70;99.90
10314;DHT22;5202;49.138;10.090;2022-09-02T02:51:19;12.60;99.90
10314;DHT22;5202;49.138;10.090;2022-09-02T02:53:49;12.60;99.90
10314;DHT22;5202;49.138;10.090;2022-09-02T02:56:24;12.60;99.90
10314;DHT22;5202;49.138;10.090;2022-09-02T02:58:53;12.70;99.90
10314;DHT22;5202;49.138;10.090;2022-09-02T03:01:22;12.70;99.90
10314;DHT22;5202;49.138;10.090;2022-09-02T03:03:51;12.70;99.90
10314;DHT22;5202;49.138;10.090;2022-09-02T03:06:22;12.60;99.90
10314;DHT22;5202;49.138;10.090;2022-09-02T03:08:53;12.60;99.90
10314;DHT22;5202;49.138;10.090;2022-09-02T03:11:23;12.70;99.90
10314;DHT22;5202;49.138;10.090;2022-09-02T03:13:55;12.70;99.90
10314;DHT22;5202;49.138;10.090;2022-09-02T03:16:24;12.60;99.90
10314;DHT22;5202;49.138;10.090;2022-09-02T03:18:53;12.60;99.90
10314;DHT22;5202;49.138;10.090;2022-09-02T03:21:22;12.50;99.90
10314;DHT22;5202;49.138;10.090;2022-09-02T03:23:50;12.40;99.90
10314;DHT22;5202;49.138;10.090;2022-09-02T03:26:21;12.40;99.90
10314;DHT22;5202;49.138;10.090;2022-09-02T03:28:53;12.40;99.90
10314;DHT22;5202;49.138;10.090;2022-09-02T03:31:25;12.40;99.90
10314;DHT22;5202;49.138;10.090;2022-09-02T03:33:56;12.30;99.90
10314;DHT22;5202;49.138;10.090;2022-09-02T03:36:28;12.30;99.90
10314;DHT22;5202;49.138;10.090;2022-09-02T03:38:58;12.20;99.90
10314;DHT22;5202;49.138;10.090;2022-09-02T03:41:52;12.20;99.90
10314;DHT22;5202;49.138;10.090;2022-09-02T03:44:21;12.20;99.90
10314;DHT22;5202;49.138;10.090;2022-09-02T03:46:50;12.10;99.90
10314;DHT22;5202;49.138;10.090;2022-09-02T03:49:19;12.10;99.90
10314;DHT22;5202;49.138;10.090;2022-09-02T03:51:48;12.10;99.90
10314;DHT22;5202;49.138;10.090;2022-09-02T03:54:16;11.90;99.90
10314;DHT22;5202;49.138;10.090;2022-09-02T03:56:45;11.90;99.90
10314;DHT22;5202;49.138;10.090;2022-09-02T03:59:14;11.90;99.90
10314;DHT22;5202;49.138;10.090;2022-09-02T04:01:43;11.80;99.90
10314;DHT22;5202;49.138;10.090;2022-09-02T04:04:17;11.80;99.90
10314;DHT22;5202;49.138;10.090;2022-09-02T04:06:55;11.70;99.90
10314;DHT22;5202;49.138;10.090;2022-09-02T04:09:26;11.70;99.90
10314;DHT22;5202;49.138;10.090;2022-09-02T04:11:54;11.70;99.90
10314;DHT22;5202;49.138;10.090;2022-09-02T04:14:22;11.70;99.90
10314;DHT22;5202;49.138;10.090;2022-09-02T04:16:52;11.80;99.90
10314;DHT22;5202;49.138;10.090;2022-09-02T04:19:22;11.70;99.90
10314;DHT22;5202;49.138;10.090;2022-09-02T04:21:50;11.70;99.90
10314;DHT22;5202;49.138;10.090;2022-09-02T04:24:19;11.70;99.90
10314;DHT22;5202;49.138;10.090;2022-09-02T04:26:49;11.80;99.90
10314;DHT22;5202;49.138;10.090;2022-09-02T04:29:17;11.70;99.90
10314;DHT22;5202;49.138;10.090;2022-09-02T04:31:49;11.70;99.90
10314;DHT22;5202;49.138;10.090;2022-09-02T04:34:17;11.70;99.90
10314;DHT22;5202;49.138;10.090;2022-09-02T04:36:49;11.70;99.90
10314;DHT22;5202;49.138;10.090;2022-09-02T04:39:19;11.70;99.90
10314;DHT22;5202;49.138;10.090;2022-09-02T04:41:49;11.70;99.90
10314;DHT22;5202;49.138;10.090;2022-09-02T04:44:20;11.60;99.90
10314;DHT22;5202;49.138;10.090;2022-09-02T04:46:48;11.60;99.90
10314;DHT22;5202;49.138;10.090;2022-09-02T04:49:20;11.70;99.90
10314;DHT22;5202;49.138;10.090;2022-09-02T04:51:58;11.70;99.90
10314;DHT22;5202;49.138;10.090;2022-09-02T04:54:28;11.70;99.90
10314;DHT22;5202;49.138;10.090;2022-09-02T04:56:59;11.80;99.90
10314;DHT22;5202;49.138;10.090;2022-09-02T04:59:28;11.80;99.90
10314;DHT22;5202;49.138;10.090;2022-09-02T05:02:02;11.90;99.90
10314;DHT22;5202;49.138;10.090;2022-09-02T05:04:31;11.90;99.90
10314;DHT22;5202;49.138;10.090;2022-09-02T05:07:03;11.90;99.90
10314;DHT22;5202;49.138;10.090;2022-09-02T05:09:37;12.00;99.90
10314;DHT22;5202;49.138;10.090;2022-09-02T05:12:06;12.00;99.90
10314;DHT22;5202;49.138;10.090;2022-09-02T05:14:43;12.00;99.90
10314;DHT22;5202;49.138;10.090;2022-09-02T05:17:11;12.00;99.90
10314;DHT22;5202;49.138;10.090;2022-09-02T05:19:42;12.10;99.90
10314;DHT22;5202;49.138;10.090;2022-09-02T05:22:13;12.10;99.90
10314;DHT22;5202;49.138;10.090;2022-09-02T05:24:43;12.20;99.90
10314;DHT22;5202;49.138;10.090;2022-09-02T05:27:13;12.20;99.90
10314;DHT22;5202;49.138;10.090;2022-09-02T05:29:43;12.20;99.90
10314;DHT22;5202;49.138;10.090;2022-09-02T05:32:14;12.30;99.90
10314;DHT22;5202;49.138;10.090;2022-09-02T05:34:44;12.30;99.90
10314;DHT22;5202;49.138;10.090;2022-09-02T05:37:15;12.40;99.90
10314;DHT22;5202;49.138;10.090;2022-09-02T05:39:43;12.40;99.90
10314;DHT22;5202;49.138;10.090;2022-09-02T05:42:12;12.50;99.90
10314;DHT22;5202;49.138;10.090;2022-09-02T05:44:44;12.60;99.90
10314;DHT22;5202;49.138;10.090;2022-09-02T05:47:17;12.70;99.90
10314;DHT22;5202;49.138;10.090;2022-09-02T05:49:46;12.70;99.90
10314;DHT22;5202;49.138;10.090;2022-09-02T05:52:16;12.80;99.90
10314;DHT22;5202;49.138;10.090;2022-09-02T05:54:48;12.90;99.90
10314;DHT22;5202;49.138;10.090;2022-09-02T05:57:20;12.90;99.90
10314;DHT22;5202;49.138;10.090;2022-09-02T05:59:58;13.00;99.90
10314;DHT22;5202;49.138;10.090;2022-09-02T06:02:44;13.10;99.90
10314;DHT22;5202;49.138;10.090;2022-09-02T06:05:19;13.10;99.90
10314;DHT22;5202;49.138;10.090;2022-09-02T06:07:57;13.20;99.90
10314;DHT22;5202;49.138;10.090;2022-09-02T06:10:25;13.30;99.90
10314;DHT22;5202;49.138;10.090;2022-09-02T06:12:54;13.30;99.90
10314;DHT22;5202;49.138;10.090;2022-09-02T06:15:25;13.30;99.90
10314;DHT22;5202;49.138;10.090;2022-09-02T06:17:58;13.40;99.90
10314;DHT22;5202;49.138;10.090;2022-09-02T06:20:28;13.50;99.90
10314;DHT22;5202;49.138;10.090;2022-09-02T06:23:01;13.60;99.90
10314;DHT22;5202;49.138;10.090;2022-09-02T06:25:38;13.60;99.90
10314;DHT22;5202;49.138;10.090;2022-09-02T06:28:08;13.80;99.90
10314;DHT22;5202;49.138;10.090;2022-09-02T06:30:41;13.90;99.40
10314;DHT22;5202;49.138;10.090;2022-09-02T06:33:11;14.00;99.40
10314;DHT22;5202;49.138;10.090;2022-09-02T06:35:43;14.00;98.90
10314;DHT22;5202;49.138;10.090;2022-09-02T06:38:16;14.20;99.00
10314;DHT22;5202;49.138;10.090;2022-09-02T06:40:48;14.20;98.50
10314;DHT22;5202;49.138;10.090;2022-09-02T06:43:24;14.30;98.20
10314;DHT22;5202;49.138;10.090;2022-09-02T06:46:05;14.40;98.10
10314;DHT22;5202;49.138;10.090;2022-09-02T06:48:35;14.60;97.90
10314;DHT22;5202;49.138;10.090;2022-09-02T06:51:05;14.70;97.80
10314;DHT22;5202;49.138;10.090;2022-09-02T06:53:35;14.80;97.40
10314;DHT22;5202;49.138;10.090;2022-09-02T06:56:06;14.90;97.30
10314;DHT22;5202;49.138;10.090;2022-09-02T06:58:38;15.00;97.30
10314;DHT22;5202;49.138;10.090;2022-09-02T07:01:09;15.10;97.20
10314;DHT22;5202;49.138;10.090;2022-09-02T07:03:42;15.20;96.70
10314;DHT22;5202;49.138;10.090;2022-09-02T07:06:31;15.30;96.30
10314;DHT22;5202;49.138;10.090;2022-09-02T07:09:06;15.40;96.60
10314;DHT22;5202;49.138;10.090;2022-09-02T07:11:37;15.50;95.90
10314;DHT22;5202;49.138;10.090;2022-09-02T07:14:08;15.60;95.70
10314;DHT22;5202;49.138;10.090;2022-09-02T07:16:42;15.80;95.70
10314;DHT22;5202;49.138;10.090;2022-09-02T07:19:13;15.90;95.30
10314;DHT22;5202;49.138;10.090;2022-09-02T07:21:47;16.00;95.20
10314;DHT22;5202;49.138;10.090;2022-09-02T07:24:17;16.10;95.20
10314;DHT22;5202;49.138;10.090;2022-09-02T07:26:46;16.20;94.80
10314;DHT22;5202;49.138;10.090;2022-09-02T07:29:20;16.30;94.60
10314;DHT22;5202;49.138;10.090;2022-09-02T07:31:49;16.50;94.70
10314;DHT22;5202;49.138;10.090;2022-09-02T07:34:19;16.60;94.30
10314;DHT22;5202;49.138;10.090;2022-09-02T07:36:48;16.60;94.10
10314;DHT22;5202;49.138;10.090;2022-09-02T07:39:20;16.70;93.90
10314;DHT22;5202;49.138;10.090;2022-09-02T07:41:50;16.80;93.90
10314;DHT22;5202;49.138;10.090;2022-09-02T07:44:21;16.90;93.80
10314;DHT22;5202;49.138;10.090;2022-09-02T07:46:51;17.00;93.40
10314;DHT22;5202;49.138;10.090;2022-09-02T07:49:21;17.20;93.30
10314;DHT22;5202;49.138;10.090;2022-09-02T07:51:51;17.20;92.60
10314;DHT22;5202;49.138;10.090;2022-09-02T07:54:24;17.40;92.30
10314;DHT22;5202;49.138;10.090;2022-09-02T07:56:54;17.40;92.70
10314;DHT22;5202;49.138;10.090;2022-09-02T07:59:23;17.60;92.40
10314;DHT22;5202;49.138;10.090;2022-09-02T08:01:54;17.70;92.10
10314;DHT22;5202;49.138;10.090;2022-09-02T08:04:29;17.80;92.20
10314;DHT22;5202;49.138;10.090;2022-09-02T08:07:15;17.90;91.40
10314;DHT22;5202;49.138;10.090;2022-09-02T08:09:51;18.00;91.70
10314;DHT22;5202;49.138;10.090;2022-09-02T08:12:20;18.10;91.10
10314;DHT22;5202;49.138;10.090;2022-09-02T08:14:48;18.10;90.40
10314;DHT22;5202;49.138;10.090;2022-09-02T08:17:17;18.10;90.50
10314;DHT22;5202;49.138;10.090;2022-09-02T08:19:45;18.20;90.80
10314;DHT22;5202;49.138;10.090;2022-09-02T08:22:13;18.30;90.60
10314;DHT22;5202;49.138;10.090;2022-09-02T08:24:42;18.40;90.20
10314;DHT22;5202;49.138;10.090;2022-09-02T08:27:11;18.40;90.10
10314;DHT22;5202;49.138;10.090;2022-09-02T08:29:39;18.50;89.30
10314;DHT22;5202;49.138;10.090;2022-09-02T08:32:08;18.60;90.00
10314;DHT22;5202;49.138;10.090;2022-09-02T08:34:36;18.70;89.30
10314;DHT22;5202;49.138;10.090;2022-09-02T08:37:05;18.80;89.10
10314;DHT22;5202;49.138;10.090;2022-09-02T08:39:33;19.00;88.80
10314;DHT22;5202;49.138;10.090;2022-09-02T08:42:08;19.20;87.90
10314;DHT22;5202;49.138;10.090;2022-09-02T08:44:42;19.20;88.00
10314;DHT22;5202;49.138;10.090;2022-09-02T08:47:16;19.20;87.60
10314;DHT22;5202;49.138;10.090;2022-09-02T08:49:49;19.40;86.90
10314;DHT22;5202;49.138;10.090;2022-09-02T08:55:06;19.50;85.50
10314;DHT22;5202;49.138;10.090;2022-09-02T08:57:39;19.60;84.00
10314;DHT22;5202;49.138;10.090;2022-09-02T09:00:12;19.70;84.90
10314;DHT22;5202;49.138;10.090;2022-09-02T09:02:55;19.80;83.90
10314;DHT22;5202;49.138;10.090;2022-09-02T09:05:36;19.90;83.70
10314;DHT22;5202;49.138;10.090;2022-09-02T09:08:11;20.10;81.20
10314;DHT22;5202;49.138;10.090;2022-09-02T09:10:54;20.10;80.80
10314;DHT22;5202;49.138;10.090;2022-09-02T09:13:50;20.20;79.80
10314;DHT22;5202;49.138;10.090;2022-09-02T09:16:34;20.30;79.60
10314;DHT22;5202;49.138;10.090;2022-09-02T09:19:11;20.30;76.70
10314;DHT22;5202;49.138;10.090;2022-09-02T09:21:42;20.40;76.10
10314;DHT22;5202;49.138;10.090;2022-09-02T09:24:20;20.40;76.40
10314;DHT22;5202;49.138;10.090;2022-09-02T09:26:53;20.50;75.30
10314;DHT22;5202;49.138;10.090;2022-09-02T09:29:23;20.70;76.60
10314;DHT22;5202;49.138;10.090;2022-09-02T09:31:56;20.90;76.10
10314;DHT22;5202;49.138;10.090;2022-09-02T09:34:53;21.00;75.60
10314;DHT22;5202;49.138;10.090;2022-09-02T09:37:31;21.00;74.50
10314;DHT22;5202;49.138;10.090;2022-09-02T09:40:27;21.20;75.40
10314;DHT22;5202;49.138;10.090;2022-09-02T09:43:09;21.30;73.20
10314;DHT22;5202;49.138;10.090;2022-09-02T09:45:44;21.40;72.40
10314;DHT22;5202;49.138;10.090;2022-09-02T09:48:21;21.40;72.30
10314;DHT22;5202;49.138;10.090;2022-09-02T09:51:11;21.30;71.70
10314;DHT22;5202;49.138;10.090;2022-09-02T09:53:42;21.40;73.10
10314;DHT22;5202;49.138;10.090;2022-09-02T09:56:35;21.40;69.80
10314;DHT22;5202;49.138;10.090;2022-09-02T09:59:35;21.50;70.20
10314;DHT22;5202;49.138;10.090;2022-09-02T10:02:17;21.50;71.00
10314;DHT22;5202;49.138;10.090;2022-09-02T10:04:48;21.60;68.80
10314;DHT22;5202;49.138;10.090;2022-09-02T10:07:35;21.50;67.70
10314;DHT22;5202;49.138;10.090;2022-09-02T10:10:15;21.60;67.90
10314;DHT22;5202;49.138;10.090;2022-09-02T10:12:46;21.50;67.70
10314;DHT22;5202;49.138;10.090;2022-09-02T10:15:17;21.70;68.60
10314;DHT22;5202;49.138;10.090;2022-09-02T10:17:55;21.70;68.10
10314;DHT22;5202;49.138;10.090;2022-09-02T10:20:41;21.80;66.40
10314;DHT22;5202;49.138;10.090;2022-09-02T10:23:43;22.00;66.60
10314;DHT22;5202;49.138;10.090;2022-09-02T10:26:23;22.00;65.40
10314;DHT22;5202;49.138;10.090;2022-09-02T10:29:06;22.10;67.80
10314;DHT22;5202;49.138;10.090;2022-09-02T10:32:01;22.20;64.00
10314;DHT22;5202;49.138;10.090;2022-09-02T10:34:48;22.20;63.10
10314;DHT22;5202;49.138;10.090;2022-09-02T10:37:28;22.10;63.20
10314;DHT22;5202;49.138;10.090;2022-09-02T10:40:10;22.30;63.60
10314;DHT22;5202;49.138;10.090;2022-09-02T10:42:57;22.30;64.20
10314;DHT22;5202;49.138;10.090;2022-09-02T10:45:55;22.40;61.70
10314;DHT22;5202;49.138;10.090;2022-09-02T10:48:32;22.50;61.80
10314;DHT22;5202;49.138;10.090;2022-09-02T10:51:15;22.40;61.70
10314;DHT22;5202;49.138;10.090;2022-09-02T10:53:57;22.30;60.50
10314;DHT22;5202;49.138;10.090;2022-09-02T10:56:40;22.40;61.40
10314;DHT22;5202;49.138;10.090;2022-09-02T10:59:15;22.60;61.30
10314;DHT22;5202;49.138;10.090;2022-09-02T11:01:50;22.90;61.80
10314;DHT22;5202;49.138;10.090;2022-09-02T11:04:24;23.10;61.60
10314;DHT22;5202;49.138;10.090;2022-09-02T11:07:07;23.30;60.50
10314;DHT22;5202;49.138;10.090;2022-09-02T11:09:42;23.20;59.50
10314;DHT22;5202;49.138;10.090;2022-09-02T11:12:16;23.20;59.80
10314;DHT22;5202;49.138;10.090;2022-09-02T11:14:55;23.20;60.00
10314;DHT22;5202;49.138;10.090;2022-09-02T11:17:32;23.30;59.30
10314;DHT22;5202;49.138;10.090;2022-09-02T11:20:11;23.40;60.10
10314;DHT22;5202;49.138;10.090;2022-09-02T11:22:51;23.50;58.70
10314;DHT22;5202;49.138;10.090;2022-09-02T11:25:24;23.50;59.00
10314;DHT22;5202;49.138;10.090;2022-09-02T11:28:00;23.60;58.20
10314;DHT22;5202;49.138;10.090;2022-09-02T11:30:38;23.50;57.00
10314;DHT22;5202;49.138;10.090;2022-09-02T11:33:16;23.70;58.20
10314;DHT22;5202;49.138;10.090;2022-09-02T11:35:46;23.90;57.90
10314;DHT22;5202;49.138;10.090;2022-09-02T11:38:32;24.00;56.70
10314;DHT22;5202;49.138;10.090;2022-09-02T11:41:20;24.10;58.20
10314;DHT22;5202;49.138;10.090;2022-09-02T11:47:39;24.20;56.00
10314;DHT22;5202;49.138;10.090;2022-09-02T11:50:41;24.40;56.30
10314;DHT22;5202;49.138;10.090;2022-09-02T11:53:20;24.40;55.80
10314;DHT22;5202;49.138;10.090;2022-09-02T11:55:56;24.30;55.70
10314;DHT22;5202;49.138;10.090;2022-09-02T11:58:35;24.10;55.20
10314;DHT22;5202;49.138;10.090;2022-09-02T12:01:26;24.20;54.40
10314;DHT22;5202;49.138;10.090;2022-09-02T12:04:27;24.40;55.60
10314;DHT22;5202;49.138;10.090;2022-09-02T12:07:27;24.30;55.20
10314;DHT22;5202;49.138;10.090;2022-09-02T12:10:01;24.70;55.70
10314;DHT22;5202;49.138;10.090;2022-09-02T12:13:06;24.80;54.40
10314;DHT22;5202;49.138;10.090;2022-09-02T12:15:36;24.70;55.00
10314;DHT22;5202;49.138;10.090;2022-09-02T12:18:11;24.90;55.10
10314;DHT22;5202;49.138;10.090;2022-09-02T12:24:08;25.30;54.00
10314;DHT22;5202;49.138;10.090;2022-09-02T12:27:06;25.70;53.70
10314;DHT22;5202;49.138;10.090;2022-09-02T12:29:35;25.90;51.30
10314;DHT22;5202;49.138;10.090;2022-09-02T12:32:07;25.70;51.40
10314;DHT22;5202;49.138;10.090;2022-09-02T12:34:53;25.70;51.40
10314;DHT22;5202;49.138;10.090;2022-09-02T12:37:51;25.90;51.80
10314;DHT22;5202;49.138;10.090;2022-09-02T12:40:35;25.80;48.30
10314;DHT22;5202;49.138;10.090;2022-09-02T12:43:25;25.50;50.10
10314;DHT22;5202;49.138;10.090;2022-09-02T12:46:03;25.60;51.20
10314;DHT22;5202;49.138;10.090;2022-09-02T12:48:58;25.80;50.90
10314;DHT22;5202;49.138;10.090;2022-09-02T12:51:53;25.90;48.80
10314;DHT22;5202;49.138;10.090;2022-09-02T12:54:31;26.20;48.60
10314;DHT22;5202;49.138;10.090;2022-09-02T12:57:03;26.10;49.10
10314;DHT22;5202;49.138;10.090;2022-09-02T12:59:35;26.10;50.30
10314;DHT22;5202;49.138;10.090;2022-09-02T13:02:35;26.30;49.00
10314;DHT22;5202;49.138;10.090;2022-09-02T13:05:18;26.20;47.40
10314;DHT22;5202;49.138;10.090;2022-09-02T13:11:47;26.50;48.80
10314;DHT22;5202;49.138;10.090;2022-09-02T13:14:51;26.90;48.40
10314;DHT22;5202;49.138;10.090;2022-09-02T13:17:44;26.80;48.10
10314;DHT22;5202;49.138;10.090;2022-09-02T13:20:38;26.90;47.80
10314;DHT22;5202;49.138;10.090;2022-09-02T13:26:53;27.20;47.10
10314;DHT22;5202;49.138;10.090;2022-09-02T13:30:03;27.20;47.00
10314;DHT22;5202;49.138;10.090;2022-09-02T13:32:34;26.80;46.50
10314;DHT22;5202;49.138;10.090;2022-09-02T13:35:05;26.70;46.70
10314;DHT22;5202;49.138;10.090;2022-09-02T13:37:39;26.80;47.00
10314;DHT22;5202;49.138;10.090;2022-09-02T13:40:17;26.80;47.10
10314;DHT22;5202;49.138;10.090;2022-09-02T13:42:53;27.10;47.20
10314;DHT22;5202;49.138;10.090;2022-09-02T13:45:25;27.30;46.60
10314;DHT22;5202;49.138;10.090;2022-09-02T13:47:55;27.60;46.40
10314;DHT22;5202;49.138;10.090;2022-09-02T13:50:26;27.80;45.50
10314;DHT22;5202;49.138;10.090;2022-09-02T13:52:57;27.80;45.10
10314;DHT22;5202;49.138;10.090;2022-09-02T13:55:48;27.80;44.70
10314;DHT22;5202;49.138;10.090;2022-09-02T13:58:30;27.70;44.60
10314;DHT22;5202;49.138;10.090;2022-09-02T14:01:17;27.60;44.90
10314;DHT22;5202;49.138;10.090;2022-09-02T14:03:49;27.80;44.40
10314;DHT22;5202;49.138;10.090;2022-09-02T14:06:23;27.80;44.60
10314;DHT22;5202;49.138;10.090;2022-09-02T14:08:56;27.80;44.40
10314;DHT22;5202;49.138;10.090;2022-09-02T14:11:27;27.80;44.00
10314;DHT22;5202;49.138;10.090;2022-09-02T14:13:56;27.80;43.50
10314;DHT22;5202;49.138;10.090;2022-09-02T14:16:30;27.10;42.70
10314;DHT22;5202;49.138;10.090;2022-09-02T14:19:05;27.20;44.90
10314;DHT22;5202;49.138;10.090;2022-09-02T14:21:35;27.20;44.50
10314;DHT22;5202;49.138;10.090;2022-09-02T14:24:04;27.20;44.50
10314;DHT22;5202;49.138;10.090;2022-09-02T14:26:41;27.30;44.80
10314;DHT22;5202;49.138;10.090;2022-09-02T14:29:12;27.70;45.30
10314;DHT22;5202;49.138;10.090;2022-09-02T14:31:44;27.90;44.90
10314;DHT22;5202;49.138;10.090;2022-09-02T14:34:31;28.00;44.50
10314;DHT22;5202;49.138;10.090;2022-09-02T14:37:04;28.10;44.40
10314;DHT22;5202;49.138;10.090;2022-09-02T14:40:06;28.00;43.80
10314;DHT22;5202;49.138;10.090;2022-09-02T14:42:44;27.90;43.60
10314;DHT22;5202;49.138;10.090;2022-09-02T14:45:13;28.10;43.50
10314;DHT22;5202;49.138;10.090;2022-09-02T14:47:43;27.90;42.70
10314;DHT22;5202;49.138;10.090;2022-09-02T14:50:18;27.90;42.80
10314;DHT22;5202;49.138;10.090;2022-09-02T14:52:52;27.80;43.80
10314;DHT22;5202;49.138;10.090;2022-09-02T14:55:47;27.80;43.60
10314;DHT22;5202;49.138;10.090;2022-09-02T14:58:19;27.80;43.50
10314;DHT22;5202;49.138;10.090;2022-09-02T15:00:54;27.80;44.20
10314;DHT22;5202;49.138;10.090;2022-09-02T15:03:26;27.60;44.40
10314;DHT22;5202;49.138;10.090;2022-09-02T15:05:56;27.60;44.40
10314;DHT22;5202;49.138;10.090;2022-09-02T15:08:24;27.70;43.50
10314;DHT22;5202;49.138;10.090;2022-09-02T15:10:53;27.50;42.80
10314;DHT22;5202;49.138;10.090;2022-09-02T15:13:28;27.40;43.30
10314;DHT22;5202;49.138;10.090;2022-09-02T15:15:59;27.30;44.10
10314;DHT22;5202;49.138;10.090;2022-09-02T15:18:30;27.20;43.60
10314;DHT22;5202;49.138;10.090;2022-09-02T15:20:58;27.20;44.50
10314;DHT22;5202;49.138;10.090;2022-09-02T15:23:27;27.20;44.70
10314;DHT22;5202;49.138;10.090;2022-09-02T15:26:00;27.20;44.60
10314;DHT22;5202;49.138;10.090;2022-09-02T15:28:28;26.90;44.10
10314;DHT22;5202;49.138;10.090;2022-09-02T15:30:57;27.00;44.10
10314;DHT22;5202;49.138;10.090;2022-09-02T15:33:53;27.00;44.20
10314;DHT22;5202;49.138;10.090;2022-09-02T15:36:21;26.90;45.10
10314;DHT22;5202;49.138;10.090;2022-09-02T15:38:52;27.20;44.10
10314;DHT22;5202;49.138;10.090;2022-09-02T15:41:22;27.30;44.00
10314;DHT22;5202;49.138;10.090;2022-09-02T15:43:53;27.20;43.30
10314;DHT22;5202;49.138;10.090;2022-09-02T15:46:23;27.20;44.00
10314;DHT22;5202;49.138;10.090;2022-09-02T15:48:55;26.90;43.80
10314;DHT22;5202;49.138;10.090;2022-09-02T15:51:29;26.80;43.90
10314;DHT22;5202;49.138;10.090;2022-09-02T15:53:58;26.70;44.10
10314;DHT22;5202;49.138;10.090;2022-09-02T15:56:30;26.60;44.60
10314;DHT22;5202;49.138;10.090;2022-09-02T15:59:02;26.70;44.70
10314;DHT22;5202;49.138;10.090;2022-09-02T16:01:37;26.50;44.40
10314;DHT22;5202;49.138;10.090;2022-09-02T16:04:12;26.20;44.50
10314;DHT22;5202;49.138;10.090;2022-09-02T16:06:51;26.10;45.80
10314;DHT22;5202;49.138;10.090;2022-09-02T16:09:19;26.20;44.70
10314;DHT22;5202;49.138;10.090;2022-09-02T16:11:49;26.00;44.40
10314;DHT22;5202;49.138;10.090;2022-09-02T16:14:20;25.70;45.60
10314;DHT22;5202;49.138;10.090;2022-09-02T16:16:51;25.70;45.30
10314;DHT22;5202;49.138;10.090;2022-09-02T16:19:24;25.80;45.70
10314;DHT22;5202;49.138;10.090;2022-09-02T16:21:56;25.90;45.60
10314;DHT22;5202;49.138;10.090;2022-09-02T16:24:25;26.00;45.80
10314;DHT22;5202;49.138;10.090;2022-09-02T16:26:53;25.90;45.40
10314;DHT22;5202;49.138;10.090;2022-09-02T16:29:22;25.90;45.40
10314;DHT22;5202;49.138;10.090;2022-09-02T16:31:54;25.90;45.90